Time;durP1;ratioP1;P1;durP2;ratioP2;P2;SDS_P1;SDS_P2;PMS_P1;PMS_P2;Temp;Humidity;BMP_temperature;BMP_pressure;BME280_temperature;BME280_humidity;BME280_pressure;Samples;Min_cycle;Max_cycle;Signal;HPM_P1;HPM_P2
2022/07/01 00:01:33;;;;;;;6.90;2.72;;;;;;;;;;10422023;28;20044;-76
2022/07/01 00:06:38;;;;;;;6.80;2.80;;;;;;;;;;10426383;28;20060;-76
2022/07/01 00:11:41;;;;;;;20.10;3.72;;;;;;;;;;10424638;28;20068;-75
2022/07/01 00:16:44;;;;;;;6.35;3.80;;;;;;;;;;10409155;28;20037;-75
2022/07/01 00:21:48;;;;;;;7.47;3.72;;;;;;;;;;10425865;28;20055;-76
2022/07/01 00:26:52;;;;;;;7.65;3.40;;;;;;;;;;10431258;28;20042;-75
2022/07/01 00:31:55;;;;;;;6.53;4.07;;;;;;;;;;10406905;28;20114;-76
2022/07/01 00:36:59;;;;;;;8.82;3.80;;;;;;;;;;10411104;28;20614;-76
2022/07/01 00:42:03;;;;;;;7.57;4.18;;;;;;;;;;10424382;28;20048;-76
2022/07/01 00:47:11;;;;;;;7.68;3.53;;;;;;;;;;10401431;28;20042;-76
2022/07/01 00:52:15;;;;;;;8.23;3.38;;;;;;;;;;10429013;28;20037;-75
2022/07/01 00:57:18;;;;;;;4.82;2.75;;;;;;;;;;10413476;28;20511;-76
2022/07/01 01:02:21;;;;;;;5.87;2.50;;;;;;;;;;10419276;28;20567;-76
2022/07/01 01:07:25;;;;;;;2.97;1.75;;;;;;;;;;10414924;28;20033;-76
2022/07/01 01:12:29;;;;;;;1.88;1.60;;;;;;;;;;10430525;28;20042;-77
2022/07/01 01:17:34;;;;;;;2.45;1.55;;;;;;;;;;10413700;28;20033;-75
2022/07/01 01:22:37;;;;;;;;;;;;;;;;;;10411498;28;20041;-77
2022/07/01 01:27:42;;;;;;;1.30;1.10;;;;;;;;;;10434639;28;19978;-75
2022/07/01 01:32:45;;;;;;;1.20;1.10;;;;;;;;;;10412321;28;20038;-75
2022/07/01 01:38:00;;;;;;;1.33;0.80;;;;;;;;;;10428307;28;20600;-77
2022/07/01 01:43:05;;;;;;;2.03;0.95;;;;;;;;;;10433359;28;20090;-77
2022/07/01 01:48:08;;;;;;;2.08;0.98;;;;;;;;;;10438559;28;20049;-77
2022/07/01 01:53:11;;;;;;;;;;;;;;;;;;10434537;28;20112;-75
2022/07/01 01:58:15;;;;;;;1.13;0.70;;;;;;;;;;10430428;28;19920;-76
2022/07/01 02:03:18;;;;;;;1.13;0.77;;;;;;;;;;10410933;28;20060;-76
2022/07/01 02:08:22;;;;;;;1.05;0.80;;;;;;;;;;10429570;28;20098;-75
2022/07/01 02:13:26;;;;;;;1.20;0.90;;;;;;;;;;10431031;28;20036;-77
2022/07/01 02:18:30;;;;;;;0.77;0.55;;;;;;;;;;10413636;28;20497;-75
2022/07/01 02:23:33;;;;;;;1.20;0.93;;;;;;;;;;10425494;28;20039;-74
2022/07/01 02:28:37;;;;;;;2.03;1.10;;;;;;;;;;10407171;28;20057;-75
2022/07/01 02:33:41;;;;;;;1.50;0.95;;;;;;;;;;10413152;28;20064;-75
2022/07/01 02:38:44;;;;;;;1.60;1.00;;;;;;;;;;10425855;28;20033;-76
2022/07/01 02:43:48;;;;;;;1.67;1.00;;;;;;;;;;10405734;28;20044;-76
2022/07/01 02:48:51;;;;;;;2.13;1.00;;;;;;;;;;10411378;28;20078;-74
2022/07/01 02:53:53;;;;;;;0.80;0.60;;;;;;;;;;10425180;28;20037;-75
2022/07/01 02:58:57;;;;;;;1.70;0.95;;;;;;;;;;10408560;28;20513;-75
2022/07/01 03:04:00;;;;;;;1.88;0.90;;;;;;;;;;10419406;28;20048;-76
2022/07/01 03:09:04;;;;;;;;;;;;;;;;;;10425159;28;20418;-75
2022/07/01 03:14:08;;;;;;;1.77;0.90;;;;;;;;;;10405509;28;19921;-78
2022/07/01 03:19:10;;;;;;;2.55;0.80;;;;;;;;;;10428009;28;20072;-77
2022/07/01 03:24:13;;;;;;;1.73;0.90;;;;;;;;;;10427102;28;20043;-76
2022/07/01 03:29:21;;;;;;;1.33;1.10;;;;;;;;;;10422074;28;20069;-77
2022/07/01 03:34:23;;;;;;;4.03;1.45;;;;;;;;;;10421124;28;20057;-77
2022/07/01 03:39:26;;;;;;;1.20;1.10;;;;;;;;;;10405382;28;20060;-77
2022/07/01 03:44:30;;;;;;;1.60;1.20;;;;;;;;;;10403424;28;20045;-74
2022/07/01 03:49:34;;;;;;;0.55;0.55;;;;;;;;;;10425502;28;20296;-75
2022/07/01 03:54:39;;;;;;;1.58;1.00;;;;;;;;;;10425547;28;20025;-77
2022/07/01 03:59:46;;;;;;;2.65;1.30;;;;;;;;;;10420600;28;20037;-75
2022/07/01 04:04:48;;;;;;;1.02;0.82;;;;;;;;;;10403869;28;20047;-77
2022/07/01 04:09:52;;;;;;;0.97;0.83;;;;;;;;;;10425055;28;20032;-76
2022/07/01 04:14:57;;;;;;;1.25;0.90;;;;;;;;;;10422505;28;20524;-75
2022/07/01 04:20:00;;;;;;;1.30;1.20;;;;;;;;;;10425608;28;20038;-76
2022/07/01 04:25:04;;;;;;;1.13;1.05;;;;;;;;;;10420248;28;20048;-76
2022/07/01 04:30:07;;;;;;;;;;;;;;;;;;10411377;28;20045;-76
2022/07/01 04:35:13;;;;;;;3.50;1.30;;;;;;;;;;10420378;28;19920;-75
2022/07/01 04:40:16;;;;;;;1.45;1.08;;;;;;;;;;10421466;28;20464;-75
2022/07/01 04:45:19;;;;;;;3.45;1.10;;;;;;;;;;10436962;28;20501;-76
2022/07/01 04:50:24;;;;;;;1.65;0.98;;;;;;;;;;10437460;28;20039;-77
2022/07/01 04:55:26;;;;;;;1.58;1.35;;;;;;;;;;10419768;28;20108;-80
2022/07/01 05:00:32;;;;;;;0.80;0.80;;;;;;;;;;10433295;28;20049;-78
2022/07/01 05:05:36;;;;;;;1.30;1.13;;;;;;;;;;10413136;28;22050;-76
2022/07/01 05:10:39;;;;;;;2.40;1.42;;;;;;;;;;10412161;28;20037;-76
2022/07/01 05:15:42;;;;;;;2.42;1.10;;;;;;;;;;10427959;28;20030;-76
2022/07/01 05:26:16;;;;;;;1.65;1.00;;;;;;;;;;10408295;28;20037;-76
2022/07/01 05:31:18;;;;;;;1.23;1.08;;;;;;;;;;10408036;28;20071;-77
2022/07/01 05:36:22;;;;;;;1.70;1.20;;;;;;;;;;10415936;28;20511;-76
2022/07/01 05:41:28;;;;;;;4.60;1.10;;;;;;;;;;10409330;28;20091;-75
2022/07/01 05:46:31;;;;;;;3.53;1.15;;;;;;;;;;10417359;28;20493;-77
2022/07/01 05:51:35;;;;;;;1.65;1.30;;;;;;;;;;10418936;28;20049;-78
2022/07/01 05:56:41;;;;;;;2.58;1.20;;;;;;;;;;10407255;28;20041;-74
2022/07/01 06:01:43;;;;;;;1.05;0.98;;;;;;;;;;10420411;28;20060;-77
2022/07/01 06:06:48;;;;;;;2.33;1.40;;;;;;;;;;10411171;28;20098;-76
2022/07/01 06:11:50;;;;;;;3.15;1.20;;;;;;;;;;10427380;28;20053;-78
2022/07/01 06:16:53;;;;;;;1.33;1.13;;;;;;;;;;10436934;28;20040;-77
2022/07/01 06:21:57;;;;;;;1.95;0.80;;;;;;;;;;10433595;28;20041;-75
2022/07/01 06:27:00;;;;;;;1.38;0.90;;;;;;;;;;10428796;28;20645;-77
2022/07/01 06:32:02;;;;;;;;;;;;;;;;;;10437758;28;20037;-77
2022/07/01 06:37:10;;;;;;;1.75;0.95;;;;;;;;;;10426699;28;19928;-76
2022/07/01 06:42:13;;;;;;;1.88;1.30;;;;;;;;;;10427671;28;20039;-77
2022/07/01 06:47:15;;;;;;;2.95;1.42;;;;;;;;;;10402806;28;20096;-77
2022/07/01 06:52:19;;;;;;;1.25;1.10;;;;;;;;;;10429423;28;20517;-76
2022/07/01 06:57:22;;;;;;;1.52;1.02;;;;;;;;;;10430236;28;20040;-76
2022/07/01 07:02:25;;;;;;;1.67;1.20;;;;;;;;;;10409969;28;20037;-76
2022/07/01 07:07:32;;;;;;;2.33;1.35;;;;;;;;;;10418094;28;20029;-76
2022/07/01 07:12:35;;;;;;;9.10;3.53;;;;;;;;;;10402481;28;20847;-77
2022/07/01 07:17:38;;;;;;;3.90;1.50;;;;;;;;;;10412070;28;20187;-77
2022/07/01 07:22:42;;;;;;;4.68;1.98;;;;;;;;;;10431343;28;20465;-76
2022/07/01 07:27:46;;;;;;;1.00;0.95;;;;;;;;;;10399752;28;20073;-75
2022/07/01 07:32:50;;;;;;;2.50;1.83;;;;;;;;;;10417527;28;20049;-77
2022/07/01 07:37:54;;;;;;;16.55;2.90;;;;;;;;;;10421156;28;20538;-75
2022/07/01 07:42:56;;;;;;;3.03;2.08;;;;;;;;;;10426522;28;20040;-77
2022/07/01 07:48:00;;;;;;;4.78;2.40;;;;;;;;;;10409510;28;20111;-78
2022/07/01 07:53:04;;;;;;;4.93;2.95;;;;;;;;;;10430038;28;20511;-77
2022/07/01 07:58:07;;;;;;;5.65;3.10;;;;;;;;;;10422696;28;20060;-77
2022/07/01 08:03:10;;;;;;;6.50;2.78;;;;;;;;;;10413638;28;20045;-77
2022/07/01 08:08:14;;;;;;;3.33;2.17;;;;;;;;;;10433702;28;20331;-76
2022/07/01 08:13:23;;;;;;;5.57;2.38;;;;;;;;;;10436665;28;20034;-75
2022/07/01 08:18:25;;;;;;;3.38;1.75;;;;;;;;;;10429443;28;20555;-77
2022/07/01 08:23:30;;;;;;;0.82;0.77;;;;;;;;;;10409884;28;20378;-76
2022/07/01 08:28:33;;;;;;;2.65;0.75;;;;;;;;;;10434029;28;20033;-77
2022/07/01 08:33:37;;;;;;;1.00;0.80;;;;;;;;;;10419377;28;20107;-76
2022/07/01 08:38:41;;;;;;;2.85;0.95;;;;;;;;;;10414141;28;20501;-75
2022/07/01 08:43:44;;;;;;;1.15;0.75;;;;;;;;;;10414161;28;20045;-79
2022/07/01 08:48:47;;;;;;;1.00;0.85;;;;;;;;;;10413115;28;20025;-77
2022/07/01 08:53:51;;;;;;;1.47;0.90;;;;;;;;;;10411826;28;20033;-76
2022/07/01 08:58:54;;;;;;;2.33;1.02;;;;;;;;;;10410947;28;20876;-77
2022/07/01 09:03:57;;;;;;;0.80;0.80;;;;;;;;;;10432747;28;20699;-77
2022/07/01 09:09:11;;;;;;;2.05;1.00;;;;;;;;;;10414091;28;20037;-75
2022/07/01 09:14:14;;;;;;;1.48;1.00;;;;;;;;;;10421277;28;20379;-75
2022/07/01 09:19:17;;;;;;;;;;;;;;;;;;10410597;28;20045;-76
2022/07/01 09:24:25;;;;;;;0.85;0.85;;;;;;;;;;10418801;28;19921;-77
2022/07/01 09:29:32;;;;;;;2.05;0.90;;;;;;;;;;10410572;28;20088;-74
2022/07/01 09:34:35;;;;;;;1.48;0.85;;;;;;;;;;10424948;28;20068;-74
2022/07/01 09:39:46;;;;;;;1.40;0.73;;;;;;;;;;10408516;28;20033;-75
2022/07/01 09:44:53;;;;;;;1.33;1.02;;;;;;;;;;10404186;28;20080;-73
2022/07/01 09:50:02;;;;;;;1.48;1.00;;;;;;;;;;10425122;28;20092;-75
2022/07/01 09:55:07;;;;;;;1.95;1.30;;;;;;;;;;10406517;28;20122;-74
2022/07/01 10:00:10;;;;;;;1.00;0.90;;;;;;;;;;10409735;28;20029;-74
2022/07/01 10:05:16;;;;;;;0.95;0.77;;;;;;;;;;10425080;28;20033;-74
2022/07/01 10:10:28;;;;;;;0.68;0.68;;;;;;;;;;10434617;28;20033;-74
2022/07/01 10:15:31;;;;;;;0.98;0.88;;;;;;;;;;10409422;28;20150;-74
2022/07/01 10:20:34;;;;;;;0.98;0.90;;;;;;;;;;10429161;28;20037;-74
2022/07/01 10:25:43;;;;;;;0.82;0.82;;;;;;;;;;10415317;28;20112;-76
2022/07/01 10:30:49;;;;;;;0.88;0.70;;;;;;;;;;10403219;28;20057;-74
2022/07/01 10:35:53;;;;;;;0.90;0.90;;;;;;;;;;10424436;28;20607;-75
2022/07/01 10:41:09;;;;;;;0.80;0.80;;;;;;;;;;10408154;28;20037;-74
2022/07/01 10:46:32;;;;;;;0.90;0.85;;;;;;;;;;10428801;28;20121;-75
2022/07/01 10:51:46;;;;;;;1.23;1.00;;;;;;;;;;10414048;28;20045;-76
2022/07/01 10:56:55;;;;;;;1.52;0.90;;;;;;;;;;10553621;27;1276144;-75
2022/07/01 11:01:58;;;;;;;1.65;1.10;;;;;;;;;;10521689;28;20068;-75
2022/07/01 11:07:01;;;;;;;2.37;1.00;;;;;;;;;;10502937;28;20520;-75
2022/07/01 11:12:07;;;;;;;1.10;1.00;;;;;;;;;;10528224;28;20297;-74
2022/07/01 11:17:10;;;;;;;1.52;1.08;;;;;;;;;;10499089;28;20044;-74
2022/07/01 11:22:13;;;;;;;;;;;;;;;;;;10523232;28;20089;-75
2022/07/01 11:27:17;;;;;;;1.88;1.05;;;;;;;;;;10521893;28;19964;-74
2022/07/01 11:32:25;;;;;;;0.80;0.80;;;;;;;;;;10506767;28;20054;-74
2022/07/01 11:42:50;;;;;;;1.95;0.98;;;;;;;;;;10525333;28;20032;-73
2022/07/01 11:47:53;;;;;;;2.17;1.65;;;;;;;;;;10516309;28;20036;-74
2022/07/01 11:52:57;;;;;;;2.53;1.23;;;;;;;;;;10497026;28;20043;-74
2022/07/01 11:58:02;;;;;;;3.70;1.10;;;;;;;;;;10498656;28;20091;-76
2022/07/01 12:03:05;;;;;;;1.08;0.98;;;;;;;;;;10519181;28;20093;-74
2022/07/01 12:08:08;;;;;;;5.97;1.50;;;;;;;;;;10491778;28;20111;-77
2022/07/01 12:13:25;;;;;;;3.15;2.20;;;;;;;;;;10464577;28;20132;-75
2022/07/01 12:18:30;;;;;;;4.65;2.08;;;;;;;;;;10482814;28;20060;-75
2022/07/01 12:23:36;;;;;;;9.52;4.82;;;;;;;;;;10487689;28;20032;-75
2022/07/01 12:28:40;;;;;;;2.55;1.33;;;;;;;;;;10453211;28;20505;-76
2022/07/01 12:33:51;;;;;;;2.05;1.30;;;;;;;;;;10482157;28;20039;-73
2022/07/01 12:39:01;;;;;;;1.98;1.25;;;;;;;;;;10469406;28;20050;-74
2022/07/01 12:44:06;;;;;;;1.55;1.30;;;;;;;;;;10486640;28;20037;-75
2022/07/01 12:49:18;;;;;;;2.00;1.60;;;;;;;;;;10487186;28;20457;-75
2022/07/01 12:54:29;;;;;;;9.27;1.83;;;;;;;;;;10482620;28;20447;-74
2022/07/01 12:59:32;;;;;;;4.07;1.95;;;;;;;;;;10479908;28;20056;-76
2022/07/01 13:04:36;;;;;;;3.00;2.08;;;;;;;;;;10492911;28;20043;-78
2022/07/01 13:09:39;;;;;;;2.25;2.03;;;;;;;;;;10478324;28;20114;-77
2022/07/01 13:14:44;;;;;;;4.82;2.30;;;;;;;;;;10487344;28;20060;-78
2022/07/01 13:19:48;;;;;;;6.03;2.20;;;;;;;;;;10474798;28;20036;-78
2022/07/01 13:24:52;;;;;;;7.88;4.28;;;;;;;;;;10492061;28;20040;-79
2022/07/01 13:29:56;;;;;;;2.92;1.80;;;;;;;;;;10485309;28;20037;-78
2022/07/01 13:35:02;;;;;;;3.58;2.25;;;;;;;;;;10467034;28;20092;-78
2022/07/01 13:40:05;;;;;;;3.90;2.05;;;;;;;;;;10477572;28;20040;-79
2022/07/01 13:45:09;;;;;;;3.63;2.25;;;;;;;;;;10496142;28;20048;-78
2022/07/01 13:50:18;;;;;;;2.60;1.75;;;;;;;;;;10501278;28;20099;-77
2022/07/01 13:55:21;;;;;;;7.43;4.65;;;;;;;;;;10498923;28;20067;-79
2022/07/01 14:00:24;;;;;;;2.50;1.90;;;;;;;;;;10502406;28;20044;-78
2022/07/01 14:05:28;;;;;;;5.28;2.53;;;;;;;;;;10508167;28;20377;-78
2022/07/01 14:10:33;;;;;;;3.03;2.20;;;;;;;;;;10489684;28;20032;-76
2022/07/01 14:15:37;;;;;;;3.45;1.98;;;;;;;;;;10468246;28;20032;-78
2022/07/01 14:20:42;;;;;;;7.20;2.30;;;;;;;;;;10481813;28;20610;-78
2022/07/01 14:25:47;;;;;;;3.80;2.10;;;;;;;;;;10496561;28;20036;-78
2022/07/01 14:30:50;;;;;;;4.80;2.10;;;;;;;;;;10503277;28;20494;-79
2022/07/01 14:35:54;;;;;;;6.63;2.33;;;;;;;;;;10528030;28;20131;-79
2022/07/01 14:40:58;;;;;;;4.22;2.45;;;;;;;;;;10508558;28;20050;-79
2022/07/01 14:46:08;;;;;;;6.13;3.67;;;;;;;;;;10504970;28;20090;-80
2022/07/01 14:51:12;;;;;;;3.20;2.13;;;;;;;;;;10489683;28;20112;-79
2022/07/01 14:56:15;;;;;;;7.38;2.55;;;;;;;;;;10496590;28;20445;-79
2022/07/01 15:01:18;;;;;;;4.50;2.80;;;;;;;;;;10491514;28;20044;-81
2022/07/01 15:06:22;;;;;;;11.02;5.60;;;;;;;;;;10511040;28;20036;-80
2022/07/01 15:11:25;;;;;;;3.13;2.03;;;;;;;;;;10511966;28;20039;-79
2022/07/01 15:16:27;;;;;;;2.50;1.50;;;;;;;;;;10471575;28;20041;-79
2022/07/01 15:21:32;;;;;;;3.05;1.85;;;;;;;;;;10485269;28;20309;-77
2022/07/01 15:26:34;;;;;;;5.55;2.08;;;;;;;;;;10489890;28;20455;-80
2022/07/01 15:31:37;;;;;;;3.40;2.00;;;;;;;;;;10473142;28;20517;-79
2022/07/01 15:36:53;;;;;;;3.95;1.67;;;;;;;;;;10488911;28;20103;-79
2022/07/01 15:42:00;;;;;;;2.53;1.80;;;;;;;;;;10489586;28;20051;-77
2022/07/01 15:48:05;;;;;;;2.45;1.45;;;;;;;;;;10488616;28;20028;-77
2022/07/01 15:52:28;;;;;;;2.03;1.52;;;;;;;;;;10479979;28;20117;-77
2022/07/01 15:57:31;;;;;;;3.53;1.75;;;;;;;;;;10498288;28;20666;-77
2022/07/01 16:02:33;;;;;;;1.63;1.43;;;;;;;;;;10482253;28;20032;-78
2022/07/01 16:07:38;;;;;;;3.05;1.80;;;;;;;;;;10468484;28;20048;-77
2022/07/01 16:12:41;;;;;;;3.88;2.00;;;;;;;;;;10473675;28;20140;-77
2022/07/01 16:17:44;;;;;;;2.83;1.40;;;;;;;;;;10495591;28;20044;-77
2022/07/01 16:22:49;;;;;;;30.00;12.70;;;;;;;;;;10479435;28;20044;-77
2022/07/01 16:27:53;;;;;;;3.78;1.33;;;;;;;;;;10494574;28;20036;-78
2022/07/01 16:32:57;;;;;;;0.60;0.60;;;;;;;;;;10477862;28;20402;-77
2022/07/01 16:38:01;;;;;;;0.70;0.70;;;;;;;;;;10488362;28;20072;-76
2022/07/01 16:43:06;;;;;;;1.13;0.75;;;;;;;;;;10493157;28;20044;-77
2022/07/01 16:48:09;;;;;;;2.22;1.08;;;;;;;;;;10472752;28;20045;-76
2022/07/01 16:53:14;;;;;;;2.17;1.20;;;;;;;;;;10486964;28;20033;-76
2022/07/01 16:58:20;;;;;;;5.18;2.83;;;;;;;;;;10465234;28;20068;-76
2022/07/01 17:03:23;;;;;;;3.08;1.75;;;;;;;;;;10487325;28;20063;-77
2022/07/01 17:08:35;;;;;;;6.15;3.75;;;;;;;;;;10487699;28;20171;-77
2022/07/01 17:13:38;;;;;;;2.00;1.02;;;;;;;;;;10482556;28;20072;-76
2022/07/01 17:18:41;;;;;;;5.57;2.83;;;;;;;;;;10486598;28;20493;-77
2022/07/01 17:23:48;;;;;;;2.73;1.50;;;;;;;;;;10478263;28;20779;-77
2022/07/01 17:28:54;;;;;;;1.42;1.20;;;;;;;;;;10489405;28;20113;-78
2022/07/01 17:33:58;;;;;;;1.98;0.90;;;;;;;;;;10486363;28;20099;-78
2022/07/01 17:39:04;;;;;;;5.00;2.35;;;;;;;;;;10472561;28;20052;-78
2022/07/01 17:44:07;;;;;;;0.80;0.80;;;;;;;;;;10465446;28;20045;-77
2022/07/01 17:49:10;;;;;;;1.98;1.40;;;;;;;;;;10461957;28;20075;-77
2022/07/01 17:54:15;;;;;;;1.17;1.08;;;;;;;;;;10487207;28;20040;-78
2022/07/01 17:59:19;;;;;;;2.42;1.40;;;;;;;;;;10482104;28;20581;-78
2022/07/01 18:04:24;;;;;;;4.88;2.70;;;;;;;;;;10484702;28;20104;-77
2022/07/01 18:09:28;;;;;;;2.80;1.55;;;;;;;;;;10465740;28;20094;-78
2022/07/01 18:14:36;;;;;;;4.88;2.65;;;;;;;;;;10467274;28;20057;-77
2022/07/01 18:19:45;;;;;;;1.35;0.80;;;;;;;;;;10492007;28;20040;-76
2022/07/01 18:24:56;;;;;;;3.42;2.17;;;;;;;;;;10477785;28;20032;-74
2022/07/01 18:30:02;;;;;;;4.50;2.22;;;;;;;;;;10492053;28;20105;-74
2022/07/01 18:35:06;;;;;;;8.60;4.93;;;;;;;;;;10470901;28;20061;-73
2022/07/01 18:40:08;;;;;;;;;;;;;;;;;;10475911;28;20108;-75
2022/07/01 18:45:13;;;;;;;8.07;3.67;;;;;;;;;;10488745;28;19960;-74
2022/07/01 18:50:16;;;;;;;1.63;1.20;;;;;;;;;;10470126;28;20102;-76
2022/07/01 18:55:19;;;;;;;2.88;1.77;;;;;;;;;;10458848;28;20098;-76
2022/07/01 19:00:26;;;;;;;2.90;1.30;;;;;;;;;;10485876;28;20032;-77
2022/07/01 19:05:30;;;;;;;8.43;4.15;;;;;;;;;;10488551;28;20036;-74
2022/07/01 19:10:33;;;;;;;6.88;3.30;;;;;;;;;;10467926;28;20048;-74
2022/07/01 19:15:41;;;;;;;8.07;4.65;;;;;;;;;;10463356;28;20043;-75
2022/07/01 19:20:44;;;;;;;8.43;3.30;;;;;;;;;;10490837;28;20068;-80
2022/07/01 19:25:47;;;;;;;7.57;3.57;;;;;;;;;;10470112;28;20067;-75
2022/07/01 19:30:51;;;;;;;10.05;4.50;;;;;;;;;;10492182;28;20136;-75
2022/07/01 19:35:54;;;;;;;7.20;2.40;;;;;;;;;;10491067;28;20029;-77
2022/07/01 19:40:56;;;;;;;25.65;11.77;;;;;;;;;;10473139;28;20422;-75
2022/07/01 19:46:00;;;;;;;5.15;2.15;;;;;;;;;;10486828;28;20039;-76
2022/07/01 19:51:03;;;;;;;4.43;2.13;;;;;;;;;;10492536;28;20090;-74
2022/07/01 19:56:06;;;;;;;3.10;1.90;;;;;;;;;;10491150;28;20401;-76
2022/07/01 20:01:10;;;;;;;10.15;4.78;;;;;;;;;;10474845;28;20064;-75
2022/07/01 20:06:13;;;;;;;3.25;2.00;;;;;;;;;;10496577;28;20078;-74
2022/07/01 20:11:16;;;;;;;4.43;1.90;;;;;;;;;;10475895;28;20087;-75
2022/07/01 20:16:20;;;;;;;6.73;3.10;;;;;;;;;;10473702;28;20161;-75
2022/07/01 20:21:23;;;;;;;5.53;2.35;;;;;;;;;;10488523;28;20563;-76
2022/07/01 20:26:25;;;;;;;8.73;4.10;;;;;;;;;;10464658;28;20064;-77
2022/07/01 20:31:29;;;;;;;4.97;2.00;;;;;;;;;;10493784;28;21023;-74
2022/07/01 20:36:32;;;;;;;9.80;2.55;;;;;;;;;;10485200;28;20056;-76
2022/07/01 20:41:36;;;;;;;6.70;3.40;;;;;;;;;;10473181;28;20040;-75
2022/07/01 20:46:40;;;;;;;4.25;2.60;;;;;;;;;;10470104;28;20045;-75
2022/07/01 20:51:43;;;;;;;5.25;2.30;;;;;;;;;;10488984;28;20124;-75
2022/07/01 20:56:46;;;;;;;4.50;2.70;;;;;;;;;;10466505;28;20044;-74
2022/07/01 21:01:51;;;;;;;4.38;2.50;;;;;;;;;;10470319;28;20136;-75
2022/07/01 21:06:53;;;;;;;3.20;1.95;;;;;;;;;;10487766;28;20048;-75
2022/07/01 21:11:56;;;;;;;6.75;2.67;;;;;;;;;;10470772;28;20608;-75
2022/07/01 21:17:00;;;;;;;3.97;2.10;;;;;;;;;;10462937;28;20101;-77
2022/07/01 21:22:03;;;;;;;4.45;1.20;;;;;;;;;;10493953;28;20056;-77
2022/07/01 21:27:06;;;;;;;3.85;2.30;;;;;;;;;;10487313;28;20674;-76
2022/07/01 21:32:11;;;;;;;6.43;2.53;;;;;;;;;;10472497;28;20045;-76
2022/07/01 21:37:14;;;;;;;4.43;2.28;;;;;;;;;;10485715;28;20536;-73
2022/07/01 21:42:18;;;;;;;4.63;2.88;;;;;;;;;;10479682;28;20040;-77
2022/07/01 21:47:22;;;;;;;6.35;2.70;;;;;;;;;;10462592;28;20037;-77
2022/07/01 21:52:26;;;;;;;5.53;2.72;;;;;;;;;;10475714;28;20704;-76
2022/07/01 21:57:29;;;;;;;5.68;2.88;;;;;;;;;;10477801;28;20044;-76
2022/07/01 22:02:33;;;;;;;6.28;2.75;;;;;;;;;;10494054;28;20606;-76
2022/07/01 22:07:37;;;;;;;4.30;2.17;;;;;;;;;;10478667;28;20159;-76
2022/07/01 22:12:40;;;;;;;7.35;3.22;;;;;;;;;;10494536;28;20044;-77
2022/07/01 22:17:47;;;;;;;5.68;2.72;;;;;;;;;;10494202;28;20040;-76
2022/07/01 22:22:52;;;;;;;5.43;2.60;;;;;;;;;;10495128;28;20028;-77
2022/07/01 22:27:55;;;;;;;6.75;3.17;;;;;;;;;;10469574;28;20044;-78
2022/07/01 22:32:59;;;;;;;4.45;2.53;;;;;;;;;;10475763;28;20068;-76
2022/07/01 22:38:03;;;;;;;4.35;2.50;;;;;;;;;;10490963;28;20037;-76
2022/07/01 22:43:07;;;;;;;5.50;2.80;;;;;;;;;;10469271;28;20097;-77
2022/07/01 22:48:15;;;;;;;7.60;3.00;;;;;;;;;;10484303;28;20044;-76
2022/07/01 22:53:25;;;;;;;3.25;2.10;;;;;;;;;;10478668;28;20127;-75
2022/07/01 22:58:31;;;;;;;5.05;2.10;;;;;;;;;;10461916;28;20327;-76
2022/07/01 23:03:38;;;;;;;4.63;2.40;;;;;;;;;;10482669;28;20041;-77
2022/07/01 23:08:44;;;;;;;4.88;2.65;;;;;;;;;;10485356;28;20411;-77
2022/07/01 23:19:09;;;;;;;5.80;3.00;;;;;;;;;;10471990;28;20043;-77
2022/07/01 23:24:12;;;;;;;6.28;2.85;;;;;;;;;;10489267;28;20147;-76
2022/07/01 23:29:15;;;;;;;6.25;2.65;;;;;;;;;;10469559;28;20056;-77
2022/07/01 23:34:19;;;;;;;6.65;2.92;;;;;;;;;;10470139;28;20063;-76
2022/07/01 23:39:23;;;;;;;6.35;2.92;;;;;;;;;;10474238;28;20086;-76
2022/07/01 23:44:26;;;;;;;7.18;2.67;;;;;;;;;;10459151;28;20045;-76
2022/07/01 23:49:30;;;;;;;6.60;2.67;;;;;;;;;;10487640;28;20056;-76
2022/07/01 23:54:33;;;;;;;5.00;2.65;;;;;;;;;;10481125;28;20351;-77
2022/07/01 23:59:35;;;;;;;4.35;2.35;;;;;;;;;;10467844;28;20102;-76
